Time;durP1;ratioP1;P1;durP2;ratioP2;P2;SDS_P1;SDS_P2;PMS_P1;PMS_P2;Temp;Humidity;BMP_temperature;BMP_pressure;BME280_temperature;BME280_humidity;BME280_pressure;Samples;Min_cycle;Max_cycle;Signal;HPM_P1;HPM_P2
2023/04/12 00:02:07;;;;;;;2.97;2.60;;;4.40;99.90;;;;;;5062496;28;20420;-69
2023/04/12 00:04:34;;;;;;;3.00;2.50;;;4.30;99.90;;;;;;5047847;28;20590;-69
2023/04/12 00:07:01;;;;;;;2.00;1.80;;;4.30;99.90;;;;;;5040852;28;20429;-69
2023/04/12 00:09:29;;;;;;;4.60;2.87;;;4.30;99.90;;;;;;5054351;28;20465;-68
2023/04/12 00:11:59;;;;;;;2.50;2.30;;;4.30;99.90;;;;;;5039154;28;20516;-70
2023/04/12 00:14:28;;;;;;;3.53;2.57;;;4.30;99.90;;;;;;5039176;28;20563;-68
2023/04/12 00:16:54;;;;;;;3.00;2.63;;;4.30;99.90;;;;;;5043384;28;20483;-68
2023/04/12 00:19:19;;;;;;;4.10;2.27;;;4.20;99.90;;;;;;5042509;28;20488;-69
2023/04/12 00:21:45;;;;;;;2.50;1.93;;;4.20;99.90;;;;;;5053342;28;20501;-68
2023/04/12 00:24:11;;;;;;;2.90;2.50;;;4.20;99.90;;;;;;5052753;28;20199;-70
2023/04/12 00:26:36;;;;;;;3.93;2.87;;;4.20;99.90;;;;;;5046857;28;20233;-68
2023/04/12 00:29:02;;;;;;;7.30;2.50;;;4.10;99.90;;;;;;5047449;28;20509;-68
2023/04/12 00:31:28;;;;;;;4.67;2.23;;;4.10;99.90;;;;;;5044015;28;20617;-69
2023/04/12 00:33:54;;;;;;;5.60;2.27;;;4.10;99.90;;;;;;5050208;28;20203;-68
2023/04/12 00:36:20;;;;;;;2.33;1.53;;;4.10;99.90;;;;;;5045016;28;21033;-68
2023/04/12 00:38:46;;;;;;;4.20;2.17;;;4.10;99.90;;;;;;5045076;28;20175;-68
2023/04/12 00:41:13;;;;;;;4.00;2.67;;;4.00;99.90;;;;;;5048210;28;20413;-68
2023/04/12 00:43:41;;;;;;;2.60;2.37;;;4.00;99.90;;;;;;5059157;28;20418;-68
2023/04/12 00:46:07;;;;;;;3.13;1.70;;;4.00;99.90;;;;;;5057987;28;20468;-67
2023/04/12 00:48:33;;;;;;;4.70;2.73;;;3.90;99.90;;;;;;5050068;28;20470;-67
2023/04/12 00:51:00;;;;;;;3.40;3.00;;;3.90;99.90;;;;;;5052211;28;20204;-68
2023/04/12 00:53:26;;;;;;;3.83;2.63;;;4.00;99.90;;;;;;5049054;28;20441;-68
2023/04/12 00:55:53;;;;;;;2.77;2.57;;;3.90;99.90;;;;;;5052803;28;20427;-69
2023/04/12 00:58:25;;;;;;;3.17;2.30;;;3.90;99.90;;;;;;5051000;28;20857;-68
2023/04/12 01:00:51;;;;;;;2.70;2.50;;;4.00;99.90;;;;;;5048924;28;20473;-68
2023/04/12 01:03:26;;;;;;;3.80;2.07;;;3.90;99.90;;;;;;5043116;28;20427;-69
2023/04/12 01:06:25;;;;;;;6.47;4.07;;;3.80;99.90;;;;;;5049490;28;20502;-69
2023/04/12 01:09:07;;;;;;;4.17;2.53;;;3.80;99.90;;;;;;5051056;28;20453;-70
2023/04/12 01:11:41;;;;;;;2.33;2.17;;;3.80;99.90;;;;;;5048116;28;20410;-69
2023/04/12 01:14:17;;;;;;;6.40;2.37;;;3.80;99.90;;;;;;5042534;28;20448;-69
2023/04/12 01:16:55;;;;;;;2.40;2.20;;;3.80;99.90;;;;;;5040769;28;20456;-69
2023/04/12 01:19:56;;;;;;;2.70;2.40;;;3.80;99.90;;;;;;5043492;28;20856;-69
2023/04/12 01:22:21;;;;;;;2.20;2.00;;;3.80;99.90;;;;;;5063460;28;20442;-71
2023/04/12 01:25:11;;;;;;;2.27;2.00;;;3.80;99.90;;;;;;5040039;28;20457;-69
2023/04/12 01:27:45;;;;;;;2.77;2.47;;;3.80;99.90;;;;;;5040474;28;20186;-69
2023/04/12 01:30:15;;;;;;;3.10;2.73;;;3.80;99.90;;;;;;5036852;28;20561;-69
2023/04/12 01:32:44;;;;;;;3.00;2.80;;;3.80;99.90;;;;;;5040553;28;20444;-70
2023/04/12 01:35:10;;;;;;;9.87;3.23;;;3.80;99.90;;;;;;5037777;28;20497;-69
2023/04/12 01:37:36;;;;;;;2.57;2.37;;;3.80;99.90;;;;;;5045710;28;20489;-69
2023/04/12 01:40:04;;;;;;;5.50;2.20;;;3.80;99.90;;;;;;5048891;28;20478;-71
2023/04/12 01:42:31;;;;;;;3.07;2.27;;;3.70;99.90;;;;;;5051105;28;20406;-68
2023/04/12 01:44:57;;;;;;;2.53;2.20;;;3.70;99.90;;;;;;5035184;28;20565;-69
2023/04/12 01:47:23;;;;;;;3.57;2.50;;;3.70;99.90;;;;;;5038351;28;20457;-69
2023/04/12 01:50:06;;;;;;;4.90;3.27;;;3.70;99.90;;;;;;5038805;28;20556;-68
2023/04/12 01:52:37;;;;;;;3.47;2.40;;;3.70;99.90;;;;;;5043682;28;20429;-69
2023/04/12 01:55:05;;;;;;;3.50;2.00;;;3.80;99.90;;;;;;5045768;28;20555;-68
2023/04/12 01:57:32;;;;;;;5.03;3.37;;;3.80;99.90;;;;;;5044704;28;20433;-67
2023/04/12 02:00:01;;;;;;;4.23;3.00;;;3.80;99.90;;;;;;5041468;28;20437;-68
2023/04/12 02:02:27;;;;;;;3.93;2.70;;;3.80;99.90;;;;;;5040436;28;20446;-69
2023/04/12 02:04:54;;;;;;;2.63;2.40;;;3.80;99.90;;;;;;5041145;28;20549;-70
2023/04/12 02:07:21;;;;;;;3.70;3.03;;;3.80;99.90;;;;;;5040620;28;20452;-69
2023/04/12 02:09:46;;;;;;;4.30;3.10;;;3.80;99.90;;;;;;5045057;28;20472;-69
2023/04/12 02:12:12;;;;;;;3.17;2.87;;;3.90;99.90;;;;;;5035756;28;20438;-68
2023/04/12 02:14:37;;;;;;;5.40;2.53;;;3.80;99.90;;;;;;5042801;28;20704;-71
2023/04/12 02:17:04;;;;;;;3.23;2.70;;;3.80;99.90;;;;;;5044997;28;20179;-69
2023/04/12 02:19:31;;;;;;;5.40;3.23;;;3.80;99.90;;;;;;5042826;28;20202;-70
2023/04/12 02:21:56;;;;;;;3.50;3.20;;;3.80;99.90;;;;;;5039032;28;20888;-69
2023/04/12 02:24:22;;;;;;;3.70;2.17;;;3.80;99.90;;;;;;5041165;28;20480;-69
2023/04/12 02:26:51;;;;;;;5.20;2.60;;;3.70;99.90;;;;;;5044461;28;20526;-69
2023/04/12 02:29:16;;;;;;;4.37;2.87;;;3.80;99.90;;;;;;5039619;28;20520;-69
2023/04/12 02:31:42;;;;;;;6.33;4.37;;;3.80;99.90;;;;;;5039238;28;20532;-69
2023/04/12 02:34:08;;;;;;;3.20;2.90;;;3.70;99.90;;;;;;5043194;28;20203;-68
2023/04/12 02:36:36;;;;;;;3.57;3.10;;;3.70;99.90;;;;;;5040079;28;20181;-70
2023/04/12 02:39:02;;;;;;;4.57;3.40;;;3.70;99.90;;;;;;5049161;28;20181;-69
2023/04/12 02:41:28;;;;;;;5.07;3.30;;;3.70;99.90;;;;;;5044943;28;20998;-69
2023/04/12 02:43:53;;;;;;;3.67;3.37;;;3.70;99.90;;;;;;5045246;28;20444;-69
2023/04/12 02:46:23;;;;;;;3.80;3.33;;;3.70;99.90;;;;;;5040693;28;20187;-69
2023/04/12 02:48:50;;;;;;;4.30;3.90;;;3.60;99.90;;;;;;5036315;28;20222;-69
2023/04/12 02:51:16;;;;;;;6.30;3.23;;;3.50;99.90;;;;;;5038516;28;20513;-69
2023/04/12 02:53:41;;;;;;;3.30;2.70;;;3.50;99.90;;;;;;5051842;28;20512;-68
2023/04/12 02:56:08;;;;;;;4.80;3.00;;;3.40;99.90;;;;;;5047096;28;20268;-69
2023/04/12 02:58:35;;;;;;;6.73;3.10;;;3.40;99.90;;;;;;5041549;28;20422;-68
2023/04/12 03:01:01;;;;;;;3.27;2.60;;;3.40;99.90;;;;;;5042222;28;20425;-71
2023/04/12 03:03:27;;;;;;;4.27;3.87;;;3.40;99.90;;;;;;5041920;28;20430;-68
2023/04/12 03:05:53;;;;;;;5.30;3.07;;;3.40;99.90;;;;;;5050107;28;20463;-68
2023/04/12 03:08:20;;;;;;;5.23;3.33;;;3.40;99.90;;;;;;5041147;28;20847;-69
2023/04/12 03:10:46;;;;;;;3.77;3.37;;;3.30;99.90;;;;;;5046485;28;20892;-68
2023/04/12 03:13:12;;;;;;;3.80;3.10;;;3.30;99.90;;;;;;5050449;28;20848;-69
2023/04/12 03:15:37;;;;;;;3.27;2.97;;;3.40;99.90;;;;;;5043711;28;20273;-69
2023/04/12 03:18:03;;;;;;;6.53;3.33;;;3.30;99.90;;;;;;5036203;28;20172;-68
2023/04/12 03:20:29;;;;;;;6.33;3.10;;;3.30;99.90;;;;;;5039390;28;20175;-68
2023/04/12 03:22:54;;;;;;;3.97;3.53;;;3.30;99.90;;;;;;5044035;28;20178;-68
2023/04/12 03:25:20;;;;;;;5.17;3.60;;;3.30;99.90;;;;;;5044236;28;20205;-69
2023/04/12 03:27:45;;;;;;;3.43;3.10;;;3.30;99.90;;;;;;5043696;28;20255;-69
2023/04/12 03:30:11;;;;;;;7.37;3.70;;;3.30;99.90;;;;;;5050478;28;20633;-68
2023/04/12 03:32:38;;;;;;;4.40;3.20;;;3.20;99.90;;;;;;5030026;28;20195;-68
2023/04/12 03:35:06;;;;;;;3.20;2.83;;;3.30;99.90;;;;;;5040392;28;20500;-70
2023/04/12 03:37:32;;;;;;;4.27;2.43;;;3.20;99.90;;;;;;5036528;28;20485;-70
2023/04/12 03:39:58;;;;;;;10.50;2.93;;;3.20;99.90;;;;;;5054128;28;21010;-71
2023/04/12 03:42:24;;;;;;;3.90;3.53;;;3.20;99.90;;;;;;5042816;28;20410;-69
2023/04/12 03:44:51;;;;;;;6.83;3.80;;;3.10;99.90;;;;;;5043457;28;20229;-68
2023/04/12 03:47:17;;;;;;;6.03;3.10;;;3.10;99.90;;;;;;5044881;28;20855;-70
2023/04/12 03:49:42;;;;;;;5.53;2.93;;;3.10;99.90;;;;;;5031977;28;20457;-69
2023/04/12 03:52:08;;;;;;;3.20;2.90;;;3.10;99.90;;;;;;5050212;28;20993;-69
2023/04/12 03:54:34;;;;;;;7.63;3.37;;;3.10;99.90;;;;;;5049949;28;20203;-69
2023/04/12 03:57:00;;;;;;;3.93;3.50;;;3.10;99.90;;;;;;5047529;28;20201;-69
2023/04/12 03:59:29;;;;;;;5.63;4.07;;;3.10;99.90;;;;;;5050108;28;20183;-68
2023/04/12 04:01:56;;;;;;;6.10;3.57;;;3.10;99.90;;;;;;5039672;28;20961;-69
2023/04/12 04:04:22;;;;;;;6.80;4.20;;;3.10;99.90;;;;;;5048575;28;20539;-69
2023/04/12 04:06:48;;;;;;;3.83;2.87;;;3.10;99.90;;;;;;5054806;28;20413;-71
2023/04/12 04:09:14;;;;;;;4.50;2.87;;;3.10;99.90;;;;;;5041938;28;20953;-71
2023/04/12 04:11:40;;;;;;;4.23;3.83;;;3.10;99.90;;;;;;5052182;28;20544;-70
2023/04/12 04:14:07;;;;;;;4.13;3.60;;;3.10;99.90;;;;;;5048462;28;20191;-69
2023/04/12 04:16:32;;;;;;;6.00;4.53;;;3.10;99.90;;;;;;5050105;28;20186;-68
2023/04/12 04:18:58;;;;;;;7.40;4.17;;;3.20;99.90;;;;;;5053326;28;20433;-69
2023/04/12 04:21:23;;;;;;;3.57;3.27;;;3.10;99.90;;;;;;5057007;28;20178;-70
2023/04/12 04:23:50;;;;;;;5.37;3.87;;;3.10;99.90;;;;;;5054084;28;20175;-69
2023/04/12 04:26:16;;;;;;;4.17;3.43;;;3.10;99.90;;;;;;5057201;28;20255;-69
2023/04/12 04:28:43;;;;;;;3.20;2.80;;;3.10;99.90;;;;;;5044341;28;20457;-69
2023/04/12 04:31:10;;;;;;;5.57;3.60;;;3.10;99.90;;;;;;5050555;28;20780;-68
2023/04/12 04:33:36;;;;;;;6.10;4.63;;;3.20;99.90;;;;;;5052736;28;20429;-70
2023/04/12 04:36:06;;;;;;;7.07;3.17;;;3.20;99.90;;;;;;5061717;28;20495;-69
2023/04/12 04:38:32;;;;;;;4.10;3.77;;;3.20;99.90;;;;;;5044679;28;20425;-68
2023/04/12 04:41:01;;;;;;;8.47;3.90;;;3.20;99.90;;;;;;5056684;28;20443;-72
2023/04/12 04:43:29;;;;;;;3.80;3.33;;;3.20;99.90;;;;;;5043663;28;20416;-72
2023/04/12 04:45:58;;;;;;;15.30;5.80;;;3.20;99.90;;;;;;5053335;28;20470;-69
2023/04/12 04:48:24;;;;;;;6.17;4.50;;;3.30;99.90;;;;;;5063254;28;20456;-68
2023/04/12 04:50:52;;;;;;;6.50;5.23;;;3.30;99.90;;;;;;5056961;28;20408;-68
2023/04/12 04:53:19;;;;;;;4.90;3.80;;;3.40;99.90;;;;;;5065178;28;20265;-67
2023/04/12 04:55:46;;;;;;;4.03;3.33;;;3.40;99.90;;;;;;5063269;28;20514;-68
2023/04/12 04:58:12;;;;;;;7.97;4.60;;;3.50;99.90;;;;;;5045258;28;20923;-68
2023/04/12 05:00:38;;;;;;;4.57;3.73;;;3.50;99.90;;;;;;5041145;28;20501;-69
2023/04/12 05:03:03;;;;;;;5.30;4.80;;;3.50;99.90;;;;;;5056149;28;20509;-69
2023/04/12 05:05:29;;;;;;;6.40;4.50;;;3.60;99.90;;;;;;5065638;28;20547;-69
2023/04/12 05:07:56;;;;;;;6.20;5.37;;;3.70;99.90;;;;;;5054295;28;20216;-69
2023/04/12 05:10:22;;;;;;;6.63;4.53;;;3.70;99.90;;;;;;5060013;28;20209;-68
2023/04/12 05:12:47;;;;;;;4.80;4.10;;;3.80;99.90;;;;;;5056567;28;21100;-68
2023/04/12 05:15:13;;;;;;;6.60;4.23;;;3.80;99.90;;;;;;5059824;28;20445;-69
2023/04/12 05:17:39;;;;;;;5.47;4.93;;;3.90;99.90;;;;;;5052459;28;20551;-68
2023/04/12 05:20:07;;;;;;;8.87;5.03;;;3.90;99.90;;;;;;5051661;28;20278;-68
2023/04/12 05:22:33;;;;;;;4.37;3.97;;;4.00;99.90;;;;;;5067895;28;20911;-68
2023/04/12 05:24:59;;;;;;;7.30;4.83;;;4.10;99.90;;;;;;5061257;28;20440;-68
2023/04/12 05:27:26;;;;;;;9.20;4.90;;;4.20;99.90;;;;;;5059833;28;20426;-68
2023/04/12 05:29:52;;;;;;;7.93;4.30;;;4.20;99.90;;;;;;5055103;28;20448;-69
2023/04/12 05:32:18;;;;;;;7.23;4.30;;;4.20;99.90;;;;;;5061571;28;20424;-68
2023/04/12 05:34:44;;;;;;;9.00;5.50;;;4.30;99.90;;;;;;5052117;28;20564;-68
2023/04/12 05:37:10;;;;;;;4.70;3.87;;;4.40;99.90;;;;;;5058714;28;20203;-68
2023/04/12 05:39:35;;;;;;;8.03;4.73;;;4.50;99.90;;;;;;5059121;28;20181;-70
2023/04/12 05:42:01;;;;;;;12.17;4.40;;;4.60;99.90;;;;;;5053945;28;20417;-68
2023/04/12 05:44:27;;;;;;;10.07;5.27;;;4.70;99.90;;;;;;5055973;28;20222;-68
2023/04/12 05:46:52;;;;;;;4.63;4.23;;;4.90;99.90;;;;;;5055901;28;20181;-69
2023/04/12 05:49:18;;;;;;;6.03;4.70;;;5.30;99.90;;;;;;5056334;28;20257;-71
2023/04/12 05:51:43;;;;;;;6.10;4.23;;;6.40;99.90;;;;;;5048062;28;20179;-69
2023/04/12 05:54:09;;;;;;;4.10;3.63;;;6.90;99.90;;;;;;5054539;28;20699;-69
2023/04/12 05:56:35;;;;;;;4.53;2.87;;;6.90;99.90;;;;;;5050788;28;20632;-69
2023/04/12 05:59:01;;;;;;;3.93;3.53;;;7.00;99.90;;;;;;5060677;28;20170;-69
2023/04/12 06:01:36;;;;;;;4.97;3.37;;;7.70;99.90;;;;;;5052407;28;20410;-69
2023/04/12 06:04:02;;;;;;;5.23;2.90;;;8.80;99.90;;;;;;5049785;28;20452;-70
2023/04/12 06:06:30;;;;;;;4.13;3.00;;;9.10;99.90;;;;;;5047998;28;20806;-71
2023/04/12 06:08:59;;;;;;;3.83;3.43;;;9.80;99.90;;;;;;5047287;28;20456;-70
2023/04/12 06:11:25;;;;;;;4.03;2.63;;;10.20;99.90;;;;;;5043955;28;20439;-71
2023/04/12 06:13:51;;;;;;;7.60;3.23;;;10.70;99.90;;;;;;5061666;28;20435;-69
2023/04/12 06:16:16;;;;;;;4.07;3.00;;;11.00;99.90;;;;;;5055280;28;20448;-68
2023/04/12 06:18:42;;;;;;;5.40;3.07;;;11.10;99.90;;;;;;5051498;28;20272;-68
2023/04/12 06:21:07;;;;;;;5.40;2.50;;;11.50;99.90;;;;;;5052492;28;20174;-69
2023/04/12 06:23:33;;;;;;;4.17;2.83;;;11.70;99.90;;;;;;5056060;28;20206;-69
2023/04/12 06:25:59;;;;;;;5.50;3.00;;;11.80;99.90;;;;;;5057238;28;20221;-67
2023/04/12 06:28:24;;;;;;;4.47;3.20;;;12.10;99.90;;;;;;5049221;28;20277;-69
2023/04/12 06:30:50;;;;;;;6.00;2.80;;;12.30;99.90;;;;;;5046426;28;20698;-69
2023/04/12 06:33:16;;;;;;;4.20;3.20;;;12.90;99.90;;;;;;5046402;28;20200;-70
2023/04/12 06:35:41;;;;;;;5.50;3.70;;;13.40;99.90;;;;;;5046730;28;20216;-69
2023/04/12 06:38:07;;;;;;;6.70;2.93;;;12.30;99.90;;;;;;5049720;28;20201;-70
2023/04/12 06:40:33;;;;;;;3.30;2.50;;;12.40;99.90;;;;;;5043686;28;20182;-68
2023/04/12 06:42:59;;;;;;;5.70;2.87;;;12.60;99.90;;;;;;5045233;28;20183;-70
2023/04/12 06:45:24;;;;;;;5.47;2.63;;;13.10;99.90;;;;;;5033596;28;20253;-69
2023/04/12 06:47:50;;;;;;;3.40;2.50;;;13.60;99.90;;;;;;5056692;28;20174;-69
2023/04/12 06:50:17;;;;;;;3.93;2.60;;;14.10;99.90;;;;;;5045743;28;20216;-71
2023/04/12 06:52:42;;;;;;;5.77;2.93;;;14.40;99.90;;;;;;5049503;28;20177;-69
2023/04/12 06:55:08;;;;;;;8.10;5.20;;;14.80;99.90;;;;;;5047380;28;20424;-70
2023/04/12 06:57:34;;;;;;;4.73;2.57;;;15.10;99.90;;;;;;5040465;28;20204;-72
2023/04/12 07:00:00;;;;;;;4.13;3.50;;;14.30;99.90;;;;;;5048583;28;20183;-71
2023/04/12 07:02:25;;;;;;;3.83;3.03;;;15.00;99.90;;;;;;5044369;28;20837;-70
2023/04/12 07:04:53;;;;;;;3.70;2.20;;;15.00;99.90;;;;;;5044442;28;20490;-70
2023/04/12 07:07:19;;;;;;;5.10;2.60;;;15.50;99.90;;;;;;5040760;28;20605;-70
2023/04/12 07:09:46;;;;;;;4.20;2.77;;;15.00;99.90;;;;;;5034516;28;20627;-70
2023/04/12 07:12:12;;;;;;;3.80;2.57;;;15.00;99.90;;;;;;5046541;28;20458;-70
2023/04/12 07:14:38;;;;;;;4.03;2.27;;;16.10;99.90;;;;;;5040243;28;20426;-69
2023/04/12 07:17:04;;;;;;;4.00;2.57;;;16.10;99.90;;;;;;5034705;28;20422;-69
2023/04/12 07:19:30;;;;;;;2.80;2.30;;;15.60;99.90;;;;;;5043074;28;20443;-71
2023/04/12 07:21:56;;;;;;;5.67;2.10;;;15.70;99.90;;;;;;5040990;28;20523;-68
2023/04/12 07:24:22;;;;;;;3.93;2.40;;;16.10;99.90;;;;;;5043591;28;20433;-69
2023/04/12 07:26:48;;;;;;;3.40;2.00;;;15.80;99.90;;;;;;5045607;28;20819;-73
2023/04/12 07:29:16;;;;;;;2.33;2.10;;;16.60;99.90;;;;;;5041465;28;20227;-69
2023/04/12 07:31:41;;;;;;;3.43;2.33;;;15.20;99.90;;;;;;5037625;28;20167;-69
2023/04/12 07:34:07;;;;;;;4.13;2.23;;;15.70;99.90;;;;;;5040529;28;20458;-71
2023/04/12 07:36:32;;;;;;;3.73;2.53;;;16.20;99.90;;;;;;5039784;28;20252;-69
2023/04/12 07:38:58;;;;;;;3.90;3.03;;;16.70;99.90;;;;;;5041589;28;20173;-70
2023/04/12 07:41:24;;;;;;;3.40;2.50;;;14.90;99.90;;;;;;5049026;28;20178;-71
2023/04/12 07:43:50;;;;;;;6.23;2.30;;;16.20;99.90;;;;;;5042954;28;20646;-70
2023/04/12 07:46:15;;;;;;;3.00;2.03;;;16.70;99.90;;;;;;5038088;28;20178;-69
2023/04/12 07:48:42;;;;;;;2.37;1.83;;;16.20;99.90;;;;;;5034953;28;20198;-69
2023/04/12 07:51:08;;;;;;;4.03;2.20;;;16.20;99.90;;;;;;5033251;28;20534;-70
2023/04/12 07:53:33;;;;;;;4.73;2.20;;;17.30;99.90;;;;;;5037289;28;20426;-69
2023/04/12 07:55:59;;;;;;;3.57;2.07;;;17.00;99.90;;;;;;5048395;28;20591;-71
2023/04/12 07:58:25;;;;;;;2.90;2.10;;;17.20;98.50;;;;;;5047807;28;20180;-69
2023/04/12 08:00:52;;;;;;;4.67;2.40;;;16.70;99.90;;;;;;5047516;28;20815;-69
2023/04/12 08:03:18;;;;;;;2.47;1.70;;;16.70;98.90;;;;;;5035028;28;20193;-69
2023/04/12 08:05:44;;;;;;;2.33;1.50;;;17.50;97.60;;;;;;5038736;28;20908;-69
2023/04/12 08:08:10;;;;;;;4.10;1.53;;;17.10;97.70;;;;;;5037841;28;20216;-69
2023/04/12 08:10:37;;;;;;;3.50;1.60;;;17.60;96.90;;;;;;5039651;28;20952;-72
2023/04/12 08:13:04;;;;;;;2.60;1.47;;;17.00;97.00;;;;;;5043824;28;20411;-70
2023/04/12 08:15:30;;;;;;;4.20;1.80;;;16.80;97.70;;;;;;5036596;28;20435;-70
2023/04/12 08:17:56;;;;;;;4.83;1.50;;;17.00;96.40;;;;;;5049870;28;20937;-69
2023/04/12 08:20:22;;;;;;;2.40;1.70;;;16.70;97.40;;;;;;5040644;28;20423;-71
2023/04/12 08:22:48;;;;;;;5.80;1.50;;;16.40;97.50;;;;;;5053830;28;20255;-70
2023/04/12 08:25:14;;;;;;;2.67;1.57;;;16.00;99.20;;;;;;5048076;28;20809;-70
2023/04/12 08:27:44;;;;;;;1.37;1.23;;;16.60;98.80;;;;;;5037459;28;20425;-70
2023/04/12 08:30:10;;;;;;;1.80;1.30;;;16.80;96.40;;;;;;5041372;28;20229;-70
2023/04/12 08:32:36;;;;;;;4.43;1.53;;;17.50;94.50;;;;;;5037867;28;20814;-69
2023/04/12 08:35:06;;;;;;;1.57;1.47;;;17.80;94.60;;;;;;5041235;28;20493;-70
2023/04/12 08:37:32;;;;;;;2.47;1.50;;;18.20;95.00;;;;;;5043811;28;20424;-72
2023/04/12 08:40:03;;;;;;;2.30;1.30;;;17.90;94.10;;;;;;5045496;28;20416;-75
2023/04/12 08:42:30;;;;;;;3.00;1.60;;;17.80;94.20;;;;;;5043575;28;20507;-69
2023/04/12 08:44:57;;;;;;;4.67;1.90;;;16.30;96.30;;;;;;5047297;28;20537;-71
2023/04/12 08:47:23;;;;;;;3.17;1.60;;;17.20;94.70;;;;;;5050282;28;20445;-69
2023/04/12 08:49:48;;;;;;;2.10;1.53;;;17.20;92.80;;;;;;5046592;28;20726;-70
2023/04/12 08:52:14;;;;;;;6.77;1.20;;;17.00;93.30;;;;;;5041320;28;20218;-70
2023/04/12 08:54:40;;;;;;;3.33;1.47;;;17.90;91.70;;;;;;5039503;28;20195;-70
2023/04/12 08:57:07;;;;;;;2.63;1.13;;;17.20;92.50;;;;;;5039728;28;20175;-72
2023/04/12 08:59:42;;;;;;;2.80;1.03;;;17.60;91.30;;;;;;5049913;28;20193;-69
2023/04/12 09:02:08;;;;;;;7.70;1.60;;;18.00;90.40;;;;;;5046245;28;20446;-72
2023/04/12 09:04:47;;;;;;;6.17;2.03;;;17.70;89.00;;;;;;5047276;28;20444;-70
2023/04/12 09:07:12;;;;;;;5.97;1.50;;;17.50;88.70;;;;;;5038366;28;20440;-70
2023/04/12 09:09:44;;;;;;;3.17;1.20;;;18.00;87.80;;;;;;5042242;28;20457;-71
2023/04/12 09:12:11;;;;;;;3.10;1.60;;;18.10;85.90;;;;;;5054149;28;20174;-69
2023/04/12 09:14:38;;;;;;;8.00;1.53;;;18.00;86.50;;;;;;5040226;28;20451;-70
2023/04/12 09:17:04;;;;;;;3.50;1.57;;;17.80;85.10;;;;;;5042497;28;20861;-69
2023/04/12 09:19:34;;;;;;;1.83;1.43;;;17.40;85.20;;;;;;5040766;28;20444;-69
2023/04/12 09:22:01;;;;;;;4.17;1.40;;;17.60;85.30;;;;;;5040319;28;20462;-69
2023/04/12 09:24:27;;;;;;;2.20;1.23;;;18.00;83.40;;;;;;5049319;28;20453;-70
2023/04/12 09:27:06;;;;;;;3.40;1.60;;;18.00;82.90;;;;;;5049367;28;20421;-72
2023/04/12 09:29:32;;;;;;;1.57;1.10;;;18.40;80.90;;;;;;5045797;28;20464;-69
2023/04/12 09:32:02;;;;;;;1.93;1.20;;;17.70;81.60;;;;;;5046904;28;20483;-69
2023/04/12 09:34:29;;;;;;;1.87;1.00;;;17.00;82.80;;;;;;5059915;28;21016;-69
2023/04/12 09:36:55;;;;;;;3.03;1.47;;;17.40;83.30;;;;;;5060450;28;20415;-70
2023/04/12 09:39:30;;;;;;;2.17;1.20;;;17.90;78.30;;;;;;5060543;28;20424;-69
2023/04/12 09:42:07;;;;;;;2.53;1.30;;;18.40;76.90;;;;;;5061610;28;20799;-69
2023/04/12 09:44:33;;;;;;;5.00;1.57;;;18.10;75.70;;;;;;5050749;28;20460;-70
2023/04/12 09:47:03;;;;;;;2.10;1.43;;;17.40;73.20;;;;;;5041141;28;20451;-70
2023/04/12 09:49:41;;;;;;;1.43;1.20;;;17.10;76.40;;;;;;5058091;28;20457;-72
2023/04/12 09:52:09;;;;;;;1.70;1.20;;;17.10;77.00;;;;;;5040187;28;20434;-70
2023/04/12 09:54:43;;;;;;;3.80;1.80;;;16.40;79.70;;;;;;5047216;28;20569;-73
2023/04/12 09:57:10;;;;;;;1.87;1.27;;;16.30;79.90;;;;;;5053138;28;20407;-68
2023/04/12 09:59:38;;;;;;;3.47;2.13;;;15.80;78.60;;;;;;5045417;28;20462;-68
2023/04/12 10:02:08;;;;;;;9.60;1.90;;;16.00;79.10;;;;;;5060593;28;20909;-67
2023/04/12 10:04:36;;;;;;;4.10;1.67;;;16.10;78.10;;;;;;5062523;28;20522;-70
2023/04/12 10:07:02;;;;;;;2.27;1.37;;;15.70;78.90;;;;;;5062588;28;20477;-68
2023/04/12 10:09:29;;;;;;;2.47;1.70;;;15.70;82.10;;;;;;5056847;28;20893;-69
2023/04/12 10:11:56;;;;;;;4.20;1.43;;;15.60;79.20;;;;;;5064605;28;20468;-69
2023/04/12 10:14:25;;;;;;;1.47;1.27;;;15.30;78.00;;;;;;5064261;28;20616;-69
2023/04/12 10:16:55;;;;;;;1.93;1.57;;;15.30;78.00;;;;;;5058600;28;20414;-68
2023/04/12 10:19:24;;;;;;;2.43;1.70;;;14.80;78.30;;;;;;5055407;28;20422;-68
2023/04/12 10:21:49;;;;;;;1.80;1.37;;;14.60;80.10;;;;;;5061333;28;20417;-67
2023/04/12 10:24:16;;;;;;;2.37;2.17;;;14.60;79.00;;;;;;5064444;28;20527;-68
2023/04/12 10:26:43;;;;;;;2.63;1.73;;;14.60;80.40;;;;;;5062142;28;20706;-69
2023/04/12 10:29:32;;;;;;;2.60;1.23;;;14.70;80.10;;;;;;5067163;28;20463;-70
2023/04/12 10:32:23;;;;;;;3.13;1.60;;;14.60;78.20;;;;;;5059073;28;20926;-69
2023/04/12 10:34:55;;;;;;;3.57;1.50;;;14.30;79.90;;;;;;5055866;28;20529;-69
2023/04/12 10:37:21;;;;;;;5.33;1.90;;;14.40;80.00;;;;;;5055788;28;20544;-68
2023/04/12 10:39:54;;;;;;;3.60;1.60;;;14.10;80.20;;;;;;5065688;28;20420;-68
2023/04/12 10:42:20;;;;;;;1.90;1.30;;;14.20;80.10;;;;;;5061076;28;20862;-66
2023/04/12 10:44:46;;;;;;;2.00;1.47;;;14.20;81.20;;;;;;5060547;28;20903;-68
2023/04/12 10:47:12;;;;;;;4.63;1.90;;;14.40;82.30;;;;;;5059418;28;20567;-69
2023/04/12 10:49:38;;;;;;;4.40;1.30;;;14.40;80.10;;;;;;5052898;28;20918;-70
2023/04/12 10:52:03;;;;;;;2.00;1.37;;;14.20;81.00;;;;;;5060768;28;20198;-70
2023/04/12 10:54:34;;;;;;;1.97;1.50;;;14.20;80.30;;;;;;5060343;28;20492;-72
2023/04/12 10:57:00;;;;;;;4.73;1.60;;;14.30;80.90;;;;;;5052187;28;20171;-71
2023/04/12 10:59:50;;;;;;;3.87;1.63;;;14.30;80.90;;;;;;5065788;28;20418;-71
2023/04/12 11:02:16;;;;;;;2.60;1.43;;;14.40;79.80;;;;;;5052129;28;20939;-70
2023/04/12 11:05:04;;;;;;;3.60;1.70;;;14.40;81.00;;;;;;5060594;28;20433;-70
2023/04/12 11:07:40;;;;;;;5.80;1.87;;;14.50;81.40;;;;;;5062372;28;20660;-68
2023/04/12 11:10:17;;;;;;;2.93;1.80;;;14.60;81.70;;;;;;5061164;28;20456;-69
2023/04/12 11:12:51;;;;;;;4.00;1.97;;;14.50;80.90;;;;;;5057853;28;20750;-68
2023/04/12 11:15:17;;;;;;;4.83;1.77;;;14.50;80.20;;;;;;5061321;28;20462;-69
2023/04/12 11:17:56;;;;;;;1.73;1.63;;;14.50;80.80;;;;;;5059299;28;20999;-68
2023/04/12 11:20:21;;;;;;;1.33;1.17;;;14.30;80.90;;;;;;5059574;28;20914;-68
2023/04/12 11:22:48;;;;;;;5.10;1.33;;;14.40;81.00;;;;;;5066044;28;20408;-69
2023/04/12 11:25:16;;;;;;;5.37;1.63;;;14.70;82.60;;;;;;5053904;28;20195;-69
2023/04/12 11:27:50;;;;;;;1.87;1.77;;;14.70;81.60;;;;;;5066694;28;20938;-70
2023/04/12 11:30:16;;;;;;;3.40;1.70;;;14.80;82.30;;;;;;5060366;28;20480;-68
2023/04/12 11:32:44;;;;;;;4.40;1.60;;;14.80;81.50;;;;;;5064059;28;20511;-68
2023/04/12 11:35:10;;;;;;;5.53;1.40;;;14.90;80.40;;;;;;5059491;28;20865;-68
2023/04/12 11:37:36;;;;;;;2.90;1.20;;;15.00;80.90;;;;;;5060280;28;20413;-69
2023/04/12 11:40:04;;;;;;;3.40;1.73;;;15.00;81.60;;;;;;5064952;28;20221;-68
2023/04/12 11:42:31;;;;;;;8.10;2.77;;;15.10;80.10;;;;;;5053204;28;20421;-68
2023/04/12 11:44:57;;;;;;;4.40;1.23;;;14.90;79.90;;;;;;5045400;28;20436;-71
2023/04/12 11:47:24;;;;;;;4.73;2.07;;;14.90;79.50;;;;;;5037449;28;20424;-70
2023/04/12 11:49:54;;;;;;;1.40;1.30;;;15.00;80.10;;;;;;5035852;28;20913;-69
2023/04/12 11:52:27;;;;;;;2.90;1.37;;;14.80;80.90;;;;;;5044341;28;20410;-69
2023/04/12 11:54:57;;;;;;;4.67;1.40;;;14.90;79.90;;;;;;5057537;28;20471;-70
2023/04/12 11:57:23;;;;;;;3.13;1.00;;;14.90;79.80;;;;;;5042089;28;20414;-69
2023/04/12 11:59:49;;;;;;;2.43;1.40;;;15.00;79.60;;;;;;5051829;28;20428;-69
2023/04/12 12:02:16;;;;;;;1.87;1.23;;;14.90;79.50;;;;;;5047452;28;20773;-69
2023/04/12 12:04:45;;;;;;;5.80;1.60;;;14.90;79.20;;;;;;5050545;28;20494;-70
2023/04/12 12:07:12;;;;;;;3.47;1.20;;;15.10;79.90;;;;;;5047854;28;20482;-69
2023/04/12 12:09:40;;;;;;;3.17;1.60;;;15.30;79.90;;;;;;5047079;28;20467;-69
2023/04/12 12:12:06;;;;;;;2.83;1.40;;;15.30;77.90;;;;;;5054046;28;20786;-71
2023/04/12 12:14:35;;;;;;;2.27;1.50;;;15.30;77.60;;;;;;5045035;28;20442;-70
2023/04/12 12:17:01;;;;;;;1.90;1.10;;;15.30;77.00;;;;;;5045457;28;20893;-70
2023/04/12 12:19:36;;;;;;;2.17;1.40;;;15.30;77.30;;;;;;5042387;28;20430;-69
2023/04/12 12:22:12;;;;;;;1.20;1.10;;;15.20;76.50;;;;;;5049744;28;20790;-72
2023/04/12 12:24:58;;;;;;;2.93;1.60;;;15.50;78.00;;;;;;5056648;28;20448;-70
2023/04/12 12:27:37;;;;;;;2.10;1.20;;;15.50;77.30;;;;;;5053759;28;20425;-70
2023/04/12 12:30:06;;;;;;;4.60;1.43;;;15.50;76.50;;;;;;5055473;28;20450;-71
2023/04/12 12:32:36;;;;;;;2.90;1.53;;;15.90;77.10;;;;;;5060653;28;20565;-70
2023/04/12 12:35:08;;;;;;;3.23;1.10;;;15.90;77.00;;;;;;5059359;28;20460;-71
2023/04/12 12:37:33;;;;;;;2.00;1.30;;;16.00;77.10;;;;;;5055693;28;20489;-69
2023/04/12 12:40:00;;;;;;;4.33;1.20;;;16.30;76.00;;;;;;5058845;28;20464;-70
2023/04/12 12:42:27;;;;;;;3.10;1.43;;;16.40;76.20;;;;;;5051826;28;20185;-70
2023/04/12 12:44:52;;;;;;;7.97;1.43;;;16.30;76.60;;;;;;5054037;28;20770;-70
2023/04/12 12:47:18;;;;;;;3.70;1.90;;;16.40;75.80;;;;;;5060191;28;20419;-69
2023/04/12 12:49:44;;;;;;;1.97;1.27;;;16.30;75.70;;;;;;5061135;28;20616;-70
2023/04/12 12:52:10;;;;;;;5.17;1.83;;;16.40;75.80;;;;;;5053825;28;20227;-70
2023/04/12 12:54:36;;;;;;;3.73;1.40;;;16.10;75.70;;;;;;5051131;28;20438;-70